sensor_id;sensor_type;location;lat;lon;timestamp;pressure;altitude;pressure_sealevel;temperature;humidity
83185;BME280;73080;48.768;11.528;2023-11-19T00:01:56;97134.38;;;5.24;87.15
83185;BME280;73080;48.768;11.528;2023-11-19T00:04:22;97121.97;;;5.13;88.27
83185;BME280;73080;48.768;11.528;2023-11-19T00:06:47;97130.75;;;5.26;87.38
83185;BME280;73080;48.768;11.528;2023-11-19T00:09:13;97132.75;;;5.23;87.39
83185;BME280;73080;48.768;11.528;2023-11-19T00:11:41;97123.13;;;5.31;87.02
83185;BME280;73080;48.768;11.528;2023-11-19T00:14:06;97116.34;;;5.30;86.99
83185;BME280;73080;48.768;11.528;2023-11-19T00:16:32;97109.94;;;5.26;86.90
83185;BME280;73080;48.768;11.528;2023-11-19T00:18:57;97107.13;;;5.20;87.89
83185;BME280;73080;48.768;11.528;2023-11-19T00:21:22;97106.50;;;5.32;87.24
83185;BME280;73080;48.768;11.528;2023-11-19T00:23:51;97106.28;;;5.33;87.03
83185;BME280;73080;48.768;11.528;2023-11-19T00:26:19;97107.06;;;5.40;86.95
83185;BME280;73080;48.768;11.528;2023-11-19T00:28:51;97095.66;;;5.41;87.16
83185;BME280;73080;48.768;11.528;2023-11-19T00:31:17;97096.69;;;5.34;87.01
83185;BME280;73080;48.768;11.528;2023-11-19T00:33:42;97091.47;;;5.34;87.03
83185;BME280;73080;48.768;11.528;2023-11-19T00:36:07;97088.66;;;5.35;87.87
83185;BME280;73080;48.768;11.528;2023-11-19T00:38:33;97081.09;;;5.27;87.41
83185;BME280;73080;48.768;11.528;2023-11-19T00:41:04;97076.84;;;5.39;87.25
83185;BME280;73080;48.768;11.528;2023-11-19T00:43:30;97073.53;;;5.12;88.29
83185;BME280;73080;48.768;11.528;2023-11-19T00:45:55;97071.69;;;5.19;87.54
83185;BME280;73080;48.768;11.528;2023-11-19T00:48:20;97079.13;;;5.16;88.42
83185;BME280;73080;48.768;11.528;2023-11-19T00:50:48;97071.09;;;5.24;88.01
83185;BME280;73080;48.768;11.528;2023-11-19T00:53:13;97069.66;;;5.28;88.27
83185;BME280;73080;48.768;11.528;2023-11-19T00:55:39;97061.91;;;5.15;88.55
83185;BME280;73080;48.768;11.528;2023-11-19T00:58:04;97052.25;;;5.29;87.83
83185;BME280;73080;48.768;11.528;2023-11-19T01:00:29;97044.63;;;5.27;87.83
83185;BME280;73080;48.768;11.528;2023-11-19T01:02:54;97053.19;;;5.41;87.34
83185;BME280;73080;48.768;11.528;2023-11-19T01:05:20;97053.81;;;5.43;87.65
83185;BME280;73080;48.768;11.528;2023-11-19T01:07:49;97054.56;;;5.50;87.08
83185;BME280;73080;48.768;11.528;2023-11-19T01:10:17;97061.84;;;5.28;87.12
83185;BME280;73080;48.768;11.528;2023-11-19T01:12:42;97050.22;;;5.37;87.45
83185;BME280;73080;48.768;11.528;2023-11-19T01:15:08;97053.66;;;5.31;87.32
83185;BME280;73080;48.768;11.528;2023-11-19T01:17:33;97054.09;;;5.21;88.05
83185;BME280;73080;48.768;11.528;2023-11-19T01:19:59;97045.22;;;5.36;88.03
83185;BME280;73080;48.768;11.528;2023-11-19T01:22:27;97039.25;;;5.29;87.73
83185;BME280;73080;48.768;11.528;2023-11-19T01:24:52;97041.66;;;5.23;87.87
83185;BME280;73080;48.768;11.528;2023-11-19T01:27:17;97035.81;;;5.28;88.40
83185;BME280;73080;48.768;11.528;2023-11-19T01:29:42;97028.75;;;5.42;87.30
83185;BME280;73080;48.768;11.528;2023-11-19T01:32:08;97031.44;;;5.29;87.32
83185;BME280;73080;48.768;11.528;2023-11-19T01:34:33;97031.84;;;5.26;88.27
83185;BME280;73080;48.768;11.528;2023-11-19T01:36:58;97024.56;;;5.41;87.25
83185;BME280;73080;48.768;11.528;2023-11-19T01:39:24;97026.44;;;5.20;87.92
83185;BME280;73080;48.768;11.528;2023-11-19T01:41:52;97020.06;;;5.16;88.42
83185;BME280;73080;48.768;11.528;2023-11-19T01:44:17;97023.22;;;5.25;88.79
83185;BME280;73080;48.768;11.528;2023-11-19T01:46:44;97025.56;;;5.40;87.46
83185;BME280;73080;48.768;11.528;2023-11-19T01:49:17;97021.38;;;5.39;87.88
83185;BME280;73080;48.768;11.528;2023-11-19T01:51:45;97007.69;;;5.50;87.64
83185;BME280;73080;48.768;11.528;2023-11-19T01:54:12;97008.09;;;5.47;87.52
83185;BME280;73080;48.768;11.528;2023-11-19T01:56:38;97001.50;;;5.44;87.76
83185;BME280;73080;48.768;11.528;2023-11-19T01:59:07;97005.19;;;5.30;88.42
83185;BME280;73080;48.768;11.528;2023-11-19T02:01:33;96997.72;;;5.40;88.12
83185;BME280;73080;48.768;11.528;2023-11-19T02:03:59;96997.72;;;5.40;88.24
83185;BME280;73080;48.768;11.528;2023-11-19T02:06:26;96989.06;;;5.46;87.80
83185;BME280;73080;48.768;11.528;2023-11-19T02:08:53;96982.41;;;5.57;87.24
83185;BME280;73080;48.768;11.528;2023-11-19T02:11:18;96982.06;;;5.47;87.86
83185;BME280;73080;48.768;11.528;2023-11-19T02:13:43;96965.97;;;5.57;87.63
83185;BME280;73080;48.768;11.528;2023-11-19T02:16:15;96969.63;;;5.49;87.98
83185;BME280;73080;48.768;11.528;2023-11-19T02:18:49;96967.34;;;5.28;89.20
83185;BME280;73080;48.768;11.528;2023-11-19T02:21:14;96957.84;;;5.46;88.50
83185;BME280;73080;48.768;11.528;2023-11-19T02:23:40;96949.41;;;5.51;87.97
83185;BME280;73080;48.768;11.528;2023-11-19T02:26:46;96935.22;;;5.40;88.65
83185;BME280;73080;48.768;11.528;2023-11-19T02:29:12;96952.84;;;5.45;88.72
83185;BME280;73080;48.768;11.528;2023-11-19T02:31:37;96942.13;;;5.60;88.52
83185;BME280;73080;48.768;11.528;2023-11-19T02:34:03;96937.88;;;5.65;87.82
83185;BME280;73080;48.768;11.528;2023-11-19T02:36:28;96940.63;;;5.70;87.93
83185;BME280;73080;48.768;11.528;2023-11-19T02:38:54;96941.31;;;5.59;88.41
83185;BME280;73080;48.768;11.528;2023-11-19T02:41:19;96934.31;;;5.60;87.92
83185;BME280;73080;48.768;11.528;2023-11-19T02:43:44;96932.19;;;5.50;88.96
83185;BME280;73080;48.768;11.528;2023-11-19T02:46:10;96942.38;;;5.51;88.61
83185;BME280;73080;48.768;11.528;2023-11-19T02:48:38;96930.88;;;5.66;88.36
83185;BME280;73080;48.768;11.528;2023-11-19T02:51:04;96929.63;;;5.68;88.26
83185;BME280;73080;48.768;11.528;2023-11-19T02:53:31;96927.94;;;5.81;87.72
83185;BME280;73080;48.768;11.528;2023-11-19T02:55:56;96923.97;;;5.78;87.76
83185;BME280;73080;48.768;11.528;2023-11-19T02:58:22;96925.13;;;5.82;87.81
83185;BME280;73080;48.768;11.528;2023-11-19T03:00:47;96923.88;;;5.85;87.81
83185;BME280;73080;48.768;11.528;2023-11-19T03:03:13;96917.88;;;5.84;87.44
83185;BME280;73080;48.768;11.528;2023-11-19T03:05:38;96923.06;;;5.91;86.78
83185;BME280;73080;48.768;11.528;2023-11-19T03:08:06;96921.81;;;6.00;87.01
83185;BME280;73080;48.768;11.528;2023-11-19T03:10:32;96911.03;;;6.15;86.56
83185;BME280;73080;48.768;11.528;2023-11-19T03:12:57;96910.19;;;5.96;87.74
83185;BME280;73080;48.768;11.528;2023-11-19T03:15:23;96903.63;;;6.12;86.96
83185;BME280;73080;48.768;11.528;2023-11-19T03:17:48;96901.41;;;6.15;86.89
83185;BME280;73080;48.768;11.528;2023-11-19T03:20:13;96906.69;;;6.09;86.42
83185;BME280;73080;48.768;11.528;2023-11-19T03:22:39;96902.81;;;5.93;88.02
83185;BME280;73080;48.768;11.528;2023-11-19T03:25:05;96895.44;;;5.83;88.40
83185;BME280;73080;48.768;11.528;2023-11-19T03:27:30;96905.88;;;5.83;88.52
83185;BME280;73080;48.768;11.528;2023-11-19T03:29:55;96901.53;;;6.02;87.61
83185;BME280;73080;48.768;11.528;2023-11-19T03:32:24;96903.56;;;6.00;87.99
83185;BME280;73080;48.768;11.528;2023-11-19T03:34:52;96909.22;;;6.15;86.77
83185;BME280;73080;48.768;11.528;2023-11-19T03:37:20;96911.03;;;6.15;87.18
83185;BME280;73080;48.768;11.528;2023-11-19T03:39:48;96914.78;;;6.00;87.70
83185;BME280;73080;48.768;11.528;2023-11-19T03:42:14;96911.25;;;6.13;87.56
83185;BME280;73080;48.768;11.528;2023-11-19T03:44:39;96908.38;;;5.96;87.95
83185;BME280;73080;48.768;11.528;2023-11-19T03:47:08;96906.75;;;6.02;88.29
83185;BME280;73080;48.768;11.528;2023-11-19T03:49:33;96908.22;;;6.16;87.45
83185;BME280;73080;48.768;11.528;2023-11-19T03:51:58;96910.91;;;6.28;87.15
83185;BME280;73080;48.768;11.528;2023-11-19T03:54:24;96909.81;;;6.17;87.39
83185;BME280;73080;48.768;11.528;2023-11-19T03:56:49;96908.16;;;5.98;88.55
83185;BME280;73080;48.768;11.528;2023-11-19T03:59:18;96912.38;;;5.99;88.29
83185;BME280;73080;48.768;11.528;2023-11-19T04:01:43;96902.81;;;5.93;88.79
83185;BME280;73080;48.768;11.528;2023-11-19T04:04:09;96903.44;;;5.88;89.12
83185;BME280;73080;48.768;11.528;2023-11-19T04:06:40;96915.66;;;6.13;88.53
83185;BME280;73080;48.768;11.528;2023-11-19T04:09:05;96911.09;;;6.26;87.88
83185;BME280;73080;48.768;11.528;2023-11-19T04:11:31;96913.56;;;6.40;87.25
83185;BME280;73080;48.768;11.528;2023-11-19T04:13:56;96912.94;;;6.44;87.26
83185;BME280;73080;48.768;11.528;2023-11-19T04:16:28;96920.75;;;6.44;87.38
83185;BME280;73080;48.768;11.528;2023-11-19T04:18:53;96905.34;;;6.43;87.13
83185;BME280;73080;48.768;11.528;2023-11-19T04:21:19;96917.50;;;6.49;86.99
83185;BME280;73080;48.768;11.528;2023-11-19T04:23:44;96908.97;;;6.42;86.96
83185;BME280;73080;48.768;11.528;2023-11-19T04:26:09;96909.81;;;6.54;86.81
83185;BME280;73080;48.768;11.528;2023-11-19T04:28:35;96888.63;;;6.62;86.58
83185;BME280;73080;48.768;11.528;2023-11-19T04:31:04;96882.06;;;6.41;86.87
83185;BME280;73080;48.768;11.528;2023-11-19T04:33:29;96876.56;;;6.31;87.45
83185;BME280;73080;48.768;11.528;2023-11-19T04:35:54;96870.41;;;6.25;87.83
83185;BME280;73080;48.768;11.528;2023-11-19T04:38:20;96870.06;;;6.22;88.42
83185;BME280;73080;48.768;11.528;2023-11-19T04:40:45;96850.50;;;6.31;88.15
83185;BME280;73080;48.768;11.528;2023-11-19T04:43:11;96849.91;;;6.11;89.05
83185;BME280;73080;48.768;11.528;2023-11-19T04:45:36;96851.22;;;6.20;88.85
83185;BME280;73080;48.768;11.528;2023-11-19T04:48:02;96862.09;;;6.17;89.01
83185;BME280;73080;48.768;11.528;2023-11-19T04:50:27;96860.25;;;5.99;90.20
83185;BME280;73080;48.768;11.528;2023-11-19T04:52:53;96861.31;;;5.91;90.42
83185;BME280;73080;48.768;11.528;2023-11-19T04:55:18;96848.63;;;6.01;90.25
83185;BME280;73080;48.768;11.528;2023-11-19T04:57:43;96851.56;;;6.05;90.27
83185;BME280;73080;48.768;11.528;2023-11-19T05:00:09;96846.06;;;5.95;90.98
83185;BME280;73080;48.768;11.528;2023-11-19T05:02:35;96846.59;;;6.22;89.77
83185;BME280;73080;48.768;11.528;2023-11-19T05:05:03;96832.25;;;6.31;89.70
83185;BME280;73080;48.768;11.528;2023-11-19T05:07:29;96830.44;;;6.31;89.55
83185;BME280;73080;48.768;11.528;2023-11-19T05:09:54;96829.63;;;6.31;89.07
83185;BME280;73080;48.768;11.528;2023-11-19T05:12:20;96853.25;;;6.18;89.92
83185;BME280;73080;48.768;11.528;2023-11-19T05:14:45;96863.97;;;6.28;89.59
83185;BME280;73080;48.768;11.528;2023-11-19T05:17:11;96877.44;;;6.25;90.01
83185;BME280;73080;48.768;11.528;2023-11-19T05:19:39;96871.00;;;6.27;90.11
83185;BME280;73080;48.768;11.528;2023-11-19T05:22:04;96874.25;;;6.23;90.37
83185;BME280;73080;48.768;11.528;2023-11-19T05:24:31;96865.88;;;6.21;90.54
83185;BME280;73080;48.768;11.528;2023-11-19T05:26:56;96870.84;;;6.22;90.68
83185;BME280;73080;48.768;11.528;2023-11-19T05:29:22;96874.34;;;6.35;90.59
83185;BME280;73080;48.768;11.528;2023-11-19T05:31:47;96874.25;;;6.41;90.59
83185;BME280;73080;48.768;11.528;2023-11-19T05:34:12;96882.72;;;6.55;90.37
83185;BME280;73080;48.768;11.528;2023-11-19T05:36:38;96873.59;;;6.46;90.74
83185;BME280;73080;48.768;11.528;2023-11-19T05:39:06;96868.94;;;6.48;90.80
83185;BME280;73080;48.768;11.528;2023-11-19T05:41:31;96860.78;;;6.44;91.22
83185;BME280;73080;48.768;11.528;2023-11-19T05:43:57;96872.09;;;6.56;90.76
83185;BME280;73080;48.768;11.528;2023-11-19T05:46:22;96866.78;;;6.63;90.82
83185;BME280;73080;48.768;11.528;2023-11-19T05:48:48;96866.72;;;6.70;90.90
83185;BME280;73080;48.768;11.528;2023-11-19T05:51:14;96866.09;;;6.86;90.28
83185;BME280;73080;48.768;11.528;2023-11-19T05:53:39;96866.66;;;6.88;90.14
83185;BME280;73080;48.768;11.528;2023-11-19T05:56:05;96862.31;;;6.82;90.35
83185;BME280;73080;48.768;11.528;2023-11-19T05:58:30;96859.69;;;6.82;91.00
83185;BME280;73080;48.768;11.528;2023-11-19T06:00:56;96853.25;;;6.84;90.88
83185;BME280;73080;48.768;11.528;2023-11-19T06:03:24;96841.56;;;6.87;91.07
83185;BME280;73080;48.768;11.528;2023-11-19T06:05:50;96840.03;;;6.98;90.88
83185;BME280;73080;48.768;11.528;2023-11-19T06:08:15;96835.81;;;6.97;90.65
83185;BME280;73080;48.768;11.528;2023-11-19T06:10:42;96824.16;;;6.99;90.97
83185;BME280;73080;48.768;11.528;2023-11-19T06:13:07;96835.63;;;7.10;90.91
83185;BME280;73080;48.768;11.528;2023-11-19T06:15:33;96839.25;;;7.09;90.90
83185;BME280;73080;48.768;11.528;2023-11-19T06:17:58;96845.03;;;7.11;90.94
83185;BME280;73080;48.768;11.528;2023-11-19T06:20:24;96848.56;;;7.05;91.41
83185;BME280;73080;48.768;11.528;2023-11-19T06:22:49;96847.00;;;7.15;91.11
83185;BME280;73080;48.768;11.528;2023-11-19T06:25:15;96845.97;;;7.16;91.22
83185;BME280;73080;48.768;11.528;2023-11-19T06:27:46;96839.28;;;7.21;91.18
83185;BME280;73080;48.768;11.528;2023-11-19T06:30:11;96839.28;;;7.21;91.15
83185;BME280;73080;48.768;11.528;2023-11-19T06:32:37;96846.00;;;7.28;91.18
83185;BME280;73080;48.768;11.528;2023-11-19T06:35:09;96843.63;;;7.27;91.11
83185;BME280;73080;48.768;11.528;2023-11-19T06:37:34;96848.53;;;7.47;90.10
83185;BME280;73080;48.768;11.528;2023-11-19T06:40:03;96856.06;;;7.55;90.44
83185;BME280;73080;48.768;11.528;2023-11-19T06:42:28;96862.63;;;7.57;90.30
83185;BME280;73080;48.768;11.528;2023-11-19T06:44:54;96853.00;;;7.69;90.23
83185;BME280;73080;48.768;11.528;2023-11-19T06:47:19;96850.03;;;7.78;89.80
83185;BME280;73080;48.768;11.528;2023-11-19T06:49:45;96850.72;;;7.73;90.20
83185;BME280;73080;48.768;11.528;2023-11-19T06:52:10;96859.34;;;7.74;90.05
83185;BME280;73080;48.768;11.528;2023-11-19T06:54:36;96844.34;;;7.81;90.63
83185;BME280;73080;48.768;11.528;2023-11-19T06:57:05;96841.63;;;7.87;90.12
83185;BME280;73080;48.768;11.528;2023-11-19T06:59:31;96848.78;;;7.80;91.09
83185;BME280;73080;48.768;11.528;2023-11-19T07:01:59;96834.56;;;7.88;91.00
83185;BME280;73080;48.768;11.528;2023-11-19T07:04:24;96828.78;;;7.86;91.57
83185;BME280;73080;48.768;11.528;2023-11-19T07:06:50;96838.22;;;7.98;90.84
83185;BME280;73080;48.768;11.528;2023-11-19T07:09:15;96835.13;;;8.02;91.11
83185;BME280;73080;48.768;11.528;2023-11-19T07:11:41;96846.25;;;8.09;90.98
83185;BME280;73080;48.768;11.528;2023-11-19T07:14:07;96847.63;;;8.11;91.13
83185;BME280;73080;48.768;11.528;2023-11-19T07:16:34;96845.91;;;8.17;91.64
83185;BME280;73080;48.768;11.528;2023-11-19T07:19:00;96850.88;;;8.30;91.33
83185;BME280;73080;48.768;11.528;2023-11-19T07:21:30;96858.19;;;8.28;91.14
83185;BME280;73080;48.768;11.528;2023-11-19T07:23:56;96853.41;;;8.25;91.61
83185;BME280;73080;48.768;11.528;2023-11-19T07:26:22;96858.19;;;8.40;91.23
83185;BME280;73080;48.768;11.528;2023-11-19T07:28:50;96854.31;;;8.42;90.48
83185;BME280;73080;48.768;11.528;2023-11-19T07:31:19;96864.97;;;8.52;90.81
83185;BME280;73080;48.768;11.528;2023-11-19T07:33:53;96857.59;;;8.49;91.15
83185;BME280;73080;48.768;11.528;2023-11-19T07:36:18;96863.63;;;8.50;91.20
83185;BME280;73080;48.768;11.528;2023-11-19T07:38:45;96867.25;;;8.61;90.68
83185;BME280;73080;48.768;11.528;2023-11-19T07:41:11;96849.38;;;8.58;91.08
83185;BME280;73080;48.768;11.528;2023-11-19T07:43:36;96854.38;;;8.59;90.99
83185;BME280;73080;48.768;11.528;2023-11-19T07:46:02;96856.00;;;8.60;91.18
83185;BME280;73080;48.768;11.528;2023-11-19T07:48:27;96856.81;;;8.77;90.62
83185;BME280;73080;48.768;11.528;2023-11-19T07:50:52;96861.28;;;8.77;90.76
83185;BME280;73080;48.768;11.528;2023-11-19T07:53:18;96864.66;;;8.89;90.60
83185;BME280;73080;48.768;11.528;2023-11-19T07:55:44;96876.22;;;8.93;90.17
83185;BME280;73080;48.768;11.528;2023-11-19T07:58:10;96869.41;;;8.92;90.00
83185;BME280;73080;48.768;11.528;2023-11-19T08:00:36;96879.25;;;9.02;89.85
83185;BME280;73080;48.768;11.528;2023-11-19T08:03:02;96879.56;;;8.89;89.91
83185;BME280;73080;48.768;11.528;2023-11-19T08:05:33;96886.16;;;8.91;90.21
83185;BME280;73080;48.768;11.528;2023-11-19T08:07:58;96879.31;;;8.90;89.97
83185;BME280;73080;48.768;11.528;2023-11-19T08:10:23;96870.06;;;8.99;90.59
83185;BME280;73080;48.768;11.528;2023-11-19T08:12:49;96876.31;;;8.98;90.10
83185;BME280;73080;48.768;11.528;2023-11-19T08:15:14;96872.88;;;9.10;89.81
83185;BME280;73080;48.768;11.528;2023-11-19T08:17:39;96888.59;;;9.10;89.92
83185;BME280;73080;48.768;11.528;2023-11-19T08:20:05;96882.31;;;9.11;89.62
83185;BME280;73080;48.768;11.528;2023-11-19T08:22:31;96880.59;;;9.16;89.42
83185;BME280;73080;48.768;11.528;2023-11-19T08:24:56;96871.13;;;9.15;90.00
83185;BME280;73080;48.768;11.528;2023-11-19T08:27:22;96866.31;;;9.24;89.59
83185;BME280;73080;48.768;11.528;2023-11-19T08:29:47;96871.34;;;9.14;90.02
83185;BME280;73080;48.768;11.528;2023-11-19T08:32:15;96871.31;;;9.25;89.91
83185;BME280;73080;48.768;11.528;2023-11-19T08:34:40;96865.81;;;9.27;89.46
83185;BME280;73080;48.768;11.528;2023-11-19T08:37:06;96863.75;;;9.29;89.60
83185;BME280;73080;48.768;11.528;2023-11-19T08:39:34;96859.66;;;9.33;89.20
83185;BME280;73080;48.768;11.528;2023-11-19T08:41:59;96866.00;;;9.54;88.95
83185;BME280;73080;48.768;11.528;2023-11-19T08:44:25;96864.72;;;9.56;88.76
83185;BME280;73080;48.768;11.528;2023-11-19T08:46:50;96871.19;;;9.66;88.49
83185;BME280;73080;48.768;11.528;2023-11-19T08:49:15;96875.06;;;9.80;88.19
83185;BME280;73080;48.768;11.528;2023-11-19T08:51:41;96878.16;;;9.77;88.36
83185;BME280;73080;48.768;11.528;2023-11-19T08:54:06;96874.19;;;9.74;88.76
83185;BME280;73080;48.768;11.528;2023-11-19T08:56:31;96881.09;;;9.97;88.05
83185;BME280;73080;48.768;11.528;2023-11-19T08:58:57;96893.31;;;9.91;88.20
83185;BME280;73080;48.768;11.528;2023-11-19T09:01:22;96894.63;;;9.89;88.57
83185;BME280;73080;48.768;11.528;2023-11-19T09:03:47;96888.00;;;10.03;88.42
83185;BME280;73080;48.768;11.528;2023-11-19T09:06:13;96875.44;;;10.05;87.90
83185;BME280;73080;48.768;11.528;2023-11-19T09:08:44;96871.13;;;10.16;87.49
83185;BME280;73080;48.768;11.528;2023-11-19T09:11:10;96880.44;;;10.24;87.85
83185;BME280;73080;48.768;11.528;2023-11-19T09:13:35;96887.81;;;10.27;88.28
83185;BME280;73080;48.768;11.528;2023-11-19T09:16:01;96891.81;;;10.29;87.96
83185;BME280;73080;48.768;11.528;2023-11-19T09:18:26;96869.59;;;10.20;88.15
83185;BME280;73080;48.768;11.528;2023-11-19T09:20:52;96867.31;;;10.24;88.37
83185;BME280;73080;48.768;11.528;2023-11-19T09:23:17;96872.63;;;10.12;88.38
83185;BME280;73080;48.768;11.528;2023-11-19T09:25:42;96869.16;;;10.23;88.35
83185;BME280;73080;48.768;11.528;2023-11-19T09:28:08;96866.63;;;10.50;87.76
83185;BME280;73080;48.768;11.528;2023-11-19T09:30:36;96857.34;;;10.64;87.16
83185;BME280;73080;48.768;11.528;2023-11-19T09:33:01;96874.50;;;10.72;87.05
83185;BME280;73080;48.768;11.528;2023-11-19T09:35:26;96882.28;;;10.89;86.55
83185;BME280;73080;48.768;11.528;2023-11-19T09:37:52;96893.09;;;10.92;86.84
83185;BME280;73080;48.768;11.528;2023-11-19T09:40:18;96899.16;;;10.93;86.82
83185;BME280;73080;48.768;11.528;2023-11-19T09:42:44;96902.25;;;10.90;86.33
83185;BME280;73080;48.768;11.528;2023-11-19T09:45:14;96902.19;;;11.07;86.31
83185;BME280;73080;48.768;11.528;2023-11-19T09:47:42;96896.09;;;11.01;86.25
83185;BME280;73080;48.768;11.528;2023-11-19T09:50:08;96890.41;;;10.87;86.89
83185;BME280;73080;48.768;11.528;2023-11-19T09:52:38;96898.28;;;10.87;86.85
83185;BME280;73080;48.768;11.528;2023-11-19T09:55:03;96890.50;;;10.97;86.44
83185;BME280;73080;48.768;11.528;2023-11-19T09:57:31;96887.59;;;10.94;86.59
83185;BME280;73080;48.768;11.528;2023-11-19T09:59:58;96889.38;;;10.88;86.66
83185;BME280;73080;48.768;11.528;2023-11-19T10:02:23;96876.00;;;10.90;86.83
83185;BME280;73080;48.768;11.528;2023-11-19T10:04:49;96873.63;;;10.88;87.36
83185;BME280;73080;48.768;11.528;2023-11-19T10:07:16;96870.13;;;10.83;88.21
83185;BME280;73080;48.768;11.528;2023-11-19T10:09:41;96865.59;;;10.78;88.12
83185;BME280;73080;48.768;11.528;2023-11-19T10:12:06;96867.03;;;10.86;88.38
83185;BME280;73080;48.768;11.528;2023-11-19T10:14:34;96865.38;;;10.80;88.48
83185;BME280;73080;48.768;11.528;2023-11-19T10:17:02;96857.91;;;10.93;88.10
83185;BME280;73080;48.768;11.528;2023-11-19T10:19:27;96859.25;;;10.96;88.13
83185;BME280;73080;48.768;11.528;2023-11-19T10:21:52;96864.00;;;10.99;88.21
83185;BME280;73080;48.768;11.528;2023-11-19T10:24:31;96848.63;;;11.40;86.91
83185;BME280;73080;48.768;11.528;2023-11-19T10:26:57;96855.28;;;11.20;87.27
83185;BME280;73080;48.768;11.528;2023-11-19T10:29:23;96852.59;;;11.42;86.48
83185;BME280;73080;48.768;11.528;2023-11-19T10:31:58;96856.25;;;11.41;86.78
83185;BME280;73080;48.768;11.528;2023-11-19T10:34:27;96846.50;;;11.37;86.27
83185;BME280;73080;48.768;11.528;2023-11-19T10:36:53;96849.25;;;11.52;85.85
83185;BME280;73080;48.768;11.528;2023-11-19T10:39:19;96860.47;;;11.42;86.26
83185;BME280;73080;48.768;11.528;2023-11-19T10:41:44;96846.97;;;11.34;86.36
83185;BME280;73080;48.768;11.528;2023-11-19T10:44:09;96851.25;;;11.40;86.62
83185;BME280;73080;48.768;11.528;2023-11-19T10:46:55;96852.44;;;11.27;87.10
83185;BME280;73080;48.768;11.528;2023-11-19T10:49:21;96850.41;;;11.34;87.12
83185;BME280;73080;48.768;11.528;2023-11-19T10:51:46;96852.53;;;11.37;86.92
83185;BME280;73080;48.768;11.528;2023-11-19T10:54:15;96855.19;;;11.37;87.27
83185;BME280;73080;48.768;11.528;2023-11-19T10:56:44;96844.88;;;11.31;88.10
83185;BME280;73080;48.768;11.528;2023-11-19T10:59:13;96847.03;;;11.39;87.79
83185;BME280;73080;48.768;11.528;2023-11-19T11:01:57;96845.41;;;11.65;86.98
83185;BME280;73080;48.768;11.528;2023-11-19T11:04:24;96846.47;;;11.64;86.37
83185;BME280;73080;48.768;11.528;2023-11-19T11:06:51;96829.06;;;11.58;86.51
83185;BME280;73080;48.768;11.528;2023-11-19T11:09:20;96827.97;;;11.91;85.80
83185;BME280;73080;48.768;11.528;2023-11-19T11:11:52;96833.13;;;12.13;85.15
83185;BME280;73080;48.768;11.528;2023-11-19T11:14:19;96831.78;;;12.10;84.09
83185;BME280;73080;48.768;11.528;2023-11-19T11:16:49;96832.38;;;12.22;84.12
83185;BME280;73080;48.768;11.528;2023-11-19T11:19:16;96828.09;;;12.74;82.75
83185;BME280;73080;48.768;11.528;2023-11-19T11:21:45;96827.28;;;12.68;82.58
83185;BME280;73080;48.768;11.528;2023-11-19T11:24:40;96831.00;;;12.77;81.73
83185;BME280;73080;48.768;11.528;2023-11-19T11:30:28;96828.25;;;12.42;82.34
83185;BME280;73080;48.768;11.528;2023-11-19T11:32:58;96836.72;;;12.49;82.67
83185;BME280;73080;48.768;11.528;2023-11-19T11:38:01;96833.66;;;12.15;83.65
83185;BME280;73080;48.768;11.528;2023-11-19T11:40:28;96829.69;;;12.17;83.23
83185;BME280;73080;48.768;11.528;2023-11-19T11:42:53;96827.84;;;12.13;83.58
83185;BME280;73080;48.768;11.528;2023-11-19T11:45:19;96822.38;;;12.19;83.47
83185;BME280;73080;48.768;11.528;2023-11-19T11:55:26;96831.19;;;12.50;82.16
83185;BME280;73080;48.768;11.528;2023-11-19T11:57:51;96824.31;;;12.49;82.47
83185;BME280;73080;48.768;11.528;2023-11-19T12:00:29;96820.75;;;12.96;81.02
83185;BME280;73080;48.768;11.528;2023-11-19T12:03:00;96811.88;;;13.28;79.92
83185;BME280;73080;48.768;11.528;2023-11-19T12:05:29;96814.53;;;13.33;79.20
83185;BME280;73080;48.768;11.528;2023-11-19T12:07:56;96811.00;;;12.97;79.36
83185;BME280;73080;48.768;11.528;2023-11-19T12:10:21;96801.53;;;12.90;79.59
83185;BME280;73080;48.768;11.528;2023-11-19T12:12:52;96806.06;;;13.41;79.41
83185;BME280;73080;48.768;11.528;2023-11-19T12:15:18;96802.63;;;13.56;77.75
83185;BME280;73080;48.768;11.528;2023-11-19T12:17:53;96812.09;;;13.92;77.35
83185;BME280;73080;48.768;11.528;2023-11-19T12:20:20;96805.69;;;14.09;77.17
83185;BME280;73080;48.768;11.528;2023-11-19T12:22:47;96807.34;;;13.74;77.17
83185;BME280;73080;48.768;11.528;2023-11-19T12:25:13;96804.44;;;13.81;77.07
83185;BME280;73080;48.768;11.528;2023-11-19T12:27:43;96805.78;;;13.78;77.48
83185;BME280;73080;48.768;11.528;2023-11-19T12:30:09;96797.34;;;13.66;77.53
83185;BME280;73080;48.768;11.528;2023-11-19T12:32:42;96791.81;;;13.32;78.79
83185;BME280;73080;48.768;11.528;2023-11-19T12:35:11;96794.75;;;13.25;78.24
83185;BME280;73080;48.768;11.528;2023-11-19T12:37:40;96795.81;;;13.39;78.97
83185;BME280;73080;48.768;11.528;2023-11-19T12:40:17;96788.66;;;13.35;79.30
83185;BME280;73080;48.768;11.528;2023-11-19T12:42:46;96784.44;;;13.29;78.57
83185;BME280;73080;48.768;11.528;2023-11-19T12:45:13;96776.28;;;13.35;78.42
83185;BME280;73080;48.768;11.528;2023-11-19T12:47:42;96771.25;;;13.24;78.71
83185;BME280;73080;48.768;11.528;2023-11-19T12:50:08;96770.75;;;13.42;78.43
83185;BME280;73080;48.768;11.528;2023-11-19T12:52:37;96772.06;;;13.34;78.53
83185;BME280;73080;48.768;11.528;2023-11-19T12:55:04;96776.28;;;13.40;78.37
83185;BME280;73080;48.768;11.528;2023-11-19T12:57:39;96777.59;;;13.28;78.35
83185;BME280;73080;48.768;11.528;2023-11-19T13:00:06;96780.50;;;13.36;78.37
83185;BME280;73080;48.768;11.528;2023-11-19T13:03:01;96782.59;;;13.19;79.04
83185;BME280;73080;48.768;11.528;2023-11-19T13:05:28;96776.81;;;13.27;77.52
83185;BME280;73080;48.768;11.528;2023-11-19T13:08:09;96779.41;;;13.17;78.01
83185;BME280;73080;48.768;11.528;2023-11-19T13:10:51;96783.91;;;13.11;78.60